AirNav   Air Wisconsin Up To $57,000 Bonus
 
 681 users online  

5GA4 Air Acres Airport
Woodstock, Georgia, USA

GOING TO WOODSTOCK?


FAA INFORMATION EFFECTIVE 16 JUNE 2022

Location

FAA Identifier: 5GA4
Lat/Long: 34-06-21.3530N 084-26-54.7430W
34-06.355883N 084-26.912383W
34.1059314,-84.4485397
(estimated)
Elevation: 918 ft. / 279.8 m (surveyed)
Variation: 02W (1985)
From city: 3 miles E of WOODSTOCK, GA
Time zone: UTC -4 (UTC -5 during Standard Time)
Zip code: 30188

Airport Operations

Airport use: Private use. Permission required prior to landing
Activation date: 10/1978
Control tower: no
ARTCC: ATLANTA CENTER
FSS: MACON FLIGHT SERVICE STATION
Attendance: UNATNDD
Wind indicator: yes
Segmented circle: no

Airport Communications

WX AWOS-3PT at RYY (9 nm SW): PHONE 770-425-3406
WX AWOS-3 at CNI (12 nm N): 119.825 (770-704-6235)
WX ASOS at PDK (16 nm SE): 128.4 (770-457-1691)
WX AWOS-3PT at VPC (20 nm W): 120.525 (770-607-7866)
WX ASOS at FTY (20 nm S): PHONE 404-696-5660

Airport Services

Runway Information

Runway 18/36

Dimensions: 2000 x 100 ft. / 610 x 30 m
Surface: turf
RUNWAY 18  RUNWAY 36
Traffic pattern: leftleft
Obstructions: hill, 1500 ft. from runwayhill, 2000 ft. from runway
AND PLINES.

Airport Ownership and Management from official FAA records

Ownership: Privately-owned
Owner: AAPO
296 AIR ACRES WAY
WOODSTOCK, GA 30188
Manager: AAPO
296 AIR ACRES WAY
WOODSTOCK, GA 30188

Airport Operational Statistics

Aircraft based on the field: 26
Single engine airplanes: 24
Multi engine airplanes: 1
Helicopters: 1
    

Additional Remarks

HIGH TENSION PLINES LESS THAN 1 MILE FM END OF RY 36.
UPSLOPE TERRAIN WITH TALL TREES LESS THAN 1 MILE FM END OF RY 18.
PPR BEFORE LANDING.
FOR CD CTC ATLANTA APCH AT 678-364-6131.

Instrument Procedures

There are no published instrument procedures at 5GA4.

Some nearby airports with instrument procedures:

KRYY - Cobb County International Airport-McCollum Field (9 nm SW)
KMGE - Dobbins ARB Airport (12 nm S)
KCNI - Cherokee County Regional Airport (12 nm N)
KPDK - Dekalb-Peachtree Airport (16 nm SE)
KVPC - Cartersville Airport (20 nm W)
KFTY - Fulton County Executive Airport/Charlie Brown Field (20 nm S)
 
Loc | Ops | Rwys | IFR | FBO | Links
Com | Nav | Svcs | Stats | Notes
Area around 5GA4 (Air Acres Airport)
 
Road maps at: MapQuest Bing Google
 
Aerial photo
WARNING: Photo may not be current or correct
Aerial photo of 5GA4 (Air Acres Airport)
Photo taken 04-Aug-2018
looking north.

Do you have a better or more recent aerial photo of Air Acres Airport that you would like to share? If so, please send us your photo.

 
Sectional chart

 
Airport distance calculator
Flying to Air Acres Airport? Find the distance to fly.

From to 5GA4

Sunrise and sunset
Times for 30-Jun-2022
 Local
(UTC-4)
 Zulu
(UTC)
Morning civil twilight06:0110:01
Sunrise06:3010:30
Sunset20:5200:52
Evening civil twilight21:2201:22

Current date and time
Zulu (UTC)  30-Jun-2022 10:59:48
Local (UTC-4)  30-Jun-2022 06:59:48
 
METAR
KRYY 
9nm SW 
301050Z 10003KT 10SM OVC004 22/22 A3024 RMK AO2 CIG 004V007 SLP228 T02220217 $
KMGE 
12nm S 
301026Z AUTO 00000KT 10SM OVC006 22/21 A3022 RMK AO2 SLP225 $
KCNI 
12nm N 
301030Z AUTO 00000KT 3SM BR 21/21 A3026 RMK AO2
KPDK 
15nm SE 
301053Z 00000KT 5SM BR SCT023 21/21 A3024 RMK AO2 SLP225 T02110211
KFTY 
20nm S 
301053Z 00000KT 9SM SCT027 22/21 A3023 RMK AO2 SLP226 T02170211
TAF
KRYY 
9nm SW 
300744Z 3008/0106 00000KT P6SM SCT003 SCT150 TEMPO 3008/3010 BKN003 FM301000 VRB03KT P6SM BKN007 FM301500 11006KT P6SM BKN020 BKN060 FM301700 11007KT P6SM VCSH SCT025 BKN060 PROB30 3021/0102 4SM TSRA BR BKN035CB
KMGE 
12nm S 
301004Z 3010/0103 11006KT 8000 BR BKN005 BKN120 BKN250 QNH3020INS BECMG 3010/3011 11006KT 8000 BR SCT005 BKN120 BKN250 QNH3020INS TEMPO 3011/3013 4800 BR BKN005 BKN120 BKN250 BECMG 3012/3013 14007KT 9000 BR BKN009 OVC020 QNH3016INS BECMG 3013/3014 15009KT 9999 NSW BKN018 BKN100 BKN250 QNH3014INS BECMG 3014/3015 12008KT 9999 SCT025 BKN100 BKN250 QNH3014INS BECMG 3020/3021 16010G15KT 9999 VCTS BKN025CB OVC070 QNH3013INS TX30/3020Z TN21/3012Z
KPDK 
15nm SE 
300752Z 3008/0106 08003KT P6SM FEW007 SCT035 BKN080 FM301000 00000KT P6SM BKN007 FM301400 10006KT P6SM BKN020 BKN060 FM301700 11007KT P6SM VCSH SCT025 BKN060 PROB30 3021/0102 4SM TSRA BR BKN035CB
KFTY 
20nm S 
300525Z 3006/0106 VRB03KT P6SM SCT004 BKN007 BKN015 TEMPO 3006/3010 BKN004 FM301400 12006KT P6SM BKN020 BKN060 FM301700 12007KT P6SM VCSH SCT025 BKN060 PROB30 3021/0102 4SM TSRA BR BKN035CB
NOTAMs
Click for the latest NOTAMs
NOTAMs are issued by the DoD/FAA and will open in a separate window not controlled by AirNav.

 

 
 

Would you like to see your business listed on this page?

 If your business provides an interesting product or service to pilots, flight crews, aircraft, or users of the Air Acres Airport, you should consider listing it here.  To start the listing process, click on the button below
 
Add a business
 

Other Pages about Air Acres Airport

Update a link
 
Copyright © AirNav, LLC. All rights reserved. Privacy Policy  Contact